createdAt,value
2023-02-04T00:01:36.228Z,11.26
2023-02-04T00:04:05.412Z,11.25
2023-02-04T00:06:33.792Z,10.90
2023-02-04T00:09:02.339Z,11.40
2023-02-04T00:11:32.420Z,10.93
2023-02-04T00:14:01.197Z,10.82
2023-02-04T00:16:30.464Z,11.08
2023-02-04T00:18:59.576Z,10.68
2023-02-04T00:21:28.283Z,11.15
2023-02-04T00:23:56.835Z,11.08
2023-02-04T00:26:25.519Z,10.76
2023-02-04T00:28:55.402Z,10.70
2023-02-04T00:31:23.902Z,10.98
2023-02-04T00:33:52.425Z,10.95
2023-02-04T00:36:20.885Z,11.12
2023-02-04T00:38:49.162Z,10.90
2023-02-04T00:41:19.585Z,10.72
2023-02-04T00:43:48.230Z,10.77
2023-02-04T00:46:19.045Z,10.84
2023-02-04T00:48:47.695Z,10.62
2023-02-04T00:51:16.178Z,10.58
2023-02-04T00:53:44.897Z,10.80
2023-02-04T00:56:15.995Z,10.84
2023-02-04T00:58:46.942Z,10.90
2023-02-04T01:01:17.291Z,10.84
2023-02-04T01:03:45.967Z,10.68
2023-02-04T01:06:14.405Z,10.89
2023-02-04T01:08:43.310Z,10.56
2023-02-04T01:11:12.541Z,10.66
2023-02-04T01:13:41.331Z,10.59
2023-02-04T01:16:10.393Z,10.67
2023-02-04T01:18:40.543Z,10.55
2023-02-04T01:21:31.307Z,10.76
2023-02-04T01:28:38.624Z,10.44
2023-02-04T01:32:02.190Z,10.77
2023-02-04T01:35:05.389Z,10.79
2023-02-04T01:38:35.418Z,10.72
2023-02-04T01:42:06.823Z,10.70
2023-02-04T01:45:09.917Z,10.28
2023-02-04T01:47:39.116Z,10.27
2023-02-04T01:50:12.411Z,10.53
2023-02-04T01:53:17.577Z,10.44
2023-02-04T02:01:19.221Z,10.36
2023-02-04T02:25:03.653Z,10.53
2023-02-04T02:27:32.483Z,10.45
2023-02-04T02:30:00.961Z,10.45
2023-02-04T02:32:29.987Z,10.46
2023-02-04T02:35:01.257Z,10.34
2023-02-04T02:37:30.996Z,10.67
2023-02-04T02:40:00.006Z,10.51
2023-02-04T02:42:31.008Z,10.65
2023-02-04T02:45:00.332Z,10.78
2023-02-04T02:47:29.537Z,10.82
2023-02-04T02:49:58.179Z,10.66
2023-02-04T02:52:28.425Z,10.71
2023-02-04T02:54:57.333Z,10.70
2023-02-04T02:57:25.995Z,10.63
2023-02-04T02:59:59.098Z,10.46
2023-02-04T03:02:27.804Z,10.39
2023-02-04T03:05:01.792Z,9.98
2023-02-04T03:07:30.680Z,10.14
2023-02-04T03:09:59.470Z,10.13
2023-02-04T03:12:28.168Z,9.91
2023-02-04T03:15:01.628Z,10.00
2023-02-04T03:17:32.107Z,10.02
2023-02-04T03:20:01.470Z,10.04
2023-02-04T03:22:30.128Z,9.75
2023-02-04T03:24:58.849Z,9.97
2023-02-04T03:27:27.390Z,9.84
2023-02-04T03:29:56.254Z,9.94
2023-02-04T03:32:26.435Z,9.76
2023-02-04T03:34:54.994Z,9.74
2023-02-04T03:37:23.685Z,9.49
2023-02-04T03:39:55.092Z,9.61
2023-02-04T03:42:24.908Z,9.60
2023-02-04T03:44:53.424Z,9.60
2023-02-04T03:47:21.699Z,9.40
2023-02-04T03:49:51.504Z,9.60
2023-02-04T03:52:20.674Z,9.49
2023-02-04T03:54:49.280Z,9.67
2023-02-04T03:57:19.403Z,9.73
2023-02-04T03:59:47.816Z,9.72
2023-02-04T04:02:16.336Z,9.74
2023-02-04T04:04:44.845Z,9.85
2023-02-04T04:07:14.969Z,9.78
2023-02-04T04:09:43.394Z,9.84
2023-02-04T04:12:11.867Z,9.76
2023-02-04T04:14:40.359Z,9.97
2023-02-04T04:17:08.806Z,9.95
2023-02-04T04:19:37.206Z,10.10
2023-02-04T04:22:05.705Z,10.11
2023-02-04T04:24:36.265Z,10.22
2023-02-04T04:27:05.058Z,9.88
2023-02-04T04:29:33.660Z,10.15
2023-02-04T04:32:02.457Z,10.19
2023-02-04T04:34:31.323Z,10.21
2023-02-04T04:36:59.723Z,10.36
2023-02-04T04:39:28.226Z,10.38
2023-02-04T04:41:57.979Z,10.08
2023-02-04T04:44:26.832Z,10.34
2023-02-04T04:46:55.710Z,10.17
2023-02-04T04:49:25.062Z,10.00
2023-02-04T04:52:08.620Z,9.87
2023-02-04T04:54:37.575Z,10.56
2023-02-04T04:57:07.971Z,10.47
2023-02-04T04:59:36.486Z,10.58
2023-02-04T05:02:05.197Z,10.66
2023-02-04T05:04:33.748Z,10.57
2023-02-04T05:07:02.565Z,10.43
2023-02-04T05:09:31.437Z,10.45
2023-02-04T05:11:59.880Z,10.57
2023-02-04T05:14:30.543Z,10.54
2023-02-04T05:16:59.144Z,10.51
2023-02-04T05:19:27.919Z,10.47
2023-02-04T05:21:57.446Z,10.63
2023-02-04T05:24:26.233Z,10.58
2023-02-04T05:26:54.580Z,10.52
2023-02-04T05:29:23.170Z,10.44
2023-02-04T05:31:53.280Z,10.37
2023-02-04T05:34:21.724Z,10.30
2023-02-04T05:36:50.363Z,10.25
2023-02-04T05:39:19.361Z,10.24
2023-02-04T05:41:48.222Z,10.24
2023-02-04T05:44:17.182Z,10.09
2023-02-04T05:46:46.654Z,10.15
2023-02-04T05:49:18.230Z,10.14
2023-02-04T05:51:46.886Z,10.19
2023-02-04T05:54:19.592Z,10.19
2023-02-04T05:56:48.877Z,10.08
2023-02-04T05:59:17.318Z,10.11
2023-02-04T06:01:46.208Z,10.19
2023-02-04T06:04:17.067Z,10.26
2023-02-04T06:06:45.583Z,10.28
2023-02-04T06:09:14.924Z,10.20
2023-02-04T06:11:43.340Z,10.33
2023-02-04T06:14:12.104Z,10.37
2023-02-04T06:16:41.000Z,10.38
2023-02-04T06:19:09.710Z,10.40
2023-02-04T06:21:39.572Z,10.31
2023-02-04T06:24:08.648Z,10.33
2023-02-04T06:26:41.711Z,10.34
2023-02-04T06:29:10.290Z,10.34
2023-02-04T06:31:40.968Z,10.34
2023-02-04T06:34:09.983Z,10.33
2023-02-04T06:36:42.454Z,10.31
2023-02-04T06:39:11.008Z,10.30
2023-02-04T06:41:39.378Z,10.32
2023-02-04T06:44:07.779Z,10.33
2023-02-04T06:46:36.169Z,10.25
2023-02-04T06:49:05.161Z,10.28
2023-02-04T06:51:33.977Z,10.32
2023-02-04T06:54:03.796Z,10.30
2023-02-04T06:56:32.898Z,10.33
2023-02-04T06:59:03.391Z,10.33
2023-02-04T07:01:35.909Z,10.34
2023-02-04T07:04:04.547Z,10.34
2023-02-04T07:06:33.267Z,10.32
2023-02-04T07:09:03.948Z,10.29
2023-02-04T07:11:32.946Z,10.24
2023-02-04T07:14:01.507Z,10.25
2023-02-04T07:16:47.935Z,10.18
2023-02-04T07:19:29.907Z,10.24
2023-02-04T07:21:59.466Z,10.12
2023-02-04T07:24:30.065Z,10.08
2023-02-04T07:26:58.852Z,10.09
2023-02-04T07:29:28.085Z,10.12
2023-02-04T07:31:57.413Z,10.19
2023-02-04T07:34:25.938Z,10.23
2023-02-04T07:36:54.417Z,10.21
2023-02-04T07:39:25.338Z,10.25
2023-02-04T07:41:55.325Z,10.29
2023-02-04T07:44:23.654Z,10.31
2023-02-04T07:46:52.085Z,10.34
2023-02-04T07:49:20.816Z,10.43
2023-02-04T07:51:51.316Z,10.45
2023-02-04T07:54:20.104Z,10.51
2023-02-04T07:56:48.412Z,10.58
2023-02-04T07:59:18.384Z,10.59
2023-02-04T08:01:48.153Z,10.56
2023-02-04T08:04:18.010Z,10.66
2023-02-04T08:06:51.692Z,10.69
2023-02-04T08:09:20.630Z,10.64
2023-02-04T08:11:49.811Z,10.75
2023-02-04T08:14:19.615Z,10.80
2023-02-04T08:16:48.107Z,10.80
2023-02-04T08:19:19.172Z,10.68
2023-02-04T08:21:48.542Z,10.89
2023-02-04T08:24:18.227Z,10.82
2023-02-04T08:26:49.505Z,10.97
2023-02-04T08:29:20.933Z,10.85
2023-02-04T08:31:49.644Z,10.99
2023-02-04T08:34:18.162Z,11.14
2023-02-04T08:36:46.730Z,11.07
2023-02-04T08:39:15.415Z,11.01
2023-02-04T08:41:46.816Z,10.94
2023-02-04T08:44:18.772Z,11.04
2023-02-04T08:46:56.803Z,10.94
2023-02-04T08:49:26.184Z,11.03
2023-02-04T08:51:55.396Z,11.12
2023-02-04T08:54:24.062Z,11.23
2023-02-04T08:56:52.857Z,11.07
2023-02-04T08:59:24.008Z,11.19
2023-02-04T09:01:54.790Z,11.36
2023-02-04T09:04:25.300Z,11.25
2023-02-04T09:06:54.089Z,11.26
2023-02-04T09:09:25.920Z,11.16
2023-02-04T09:11:55.231Z,11.45
2023-02-04T09:14:23.634Z,11.29
2023-02-04T09:16:53.665Z,11.28
2023-02-04T09:19:25.838Z,11.27
2023-02-04T09:21:55.500Z,11.47
2023-02-04T09:24:24.889Z,11.41
2023-02-04T09:26:53.541Z,11.70
2023-02-04T09:29:22.063Z,11.60
2023-02-04T09:31:50.652Z,11.58
2023-02-04T09:34:20.887Z,11.90
2023-02-04T09:36:49.344Z,11.75
2023-02-04T09:39:18.026Z,11.62
2023-02-04T09:41:47.140Z,11.55
2023-02-04T09:44:21.512Z,11.98
2023-02-04T09:46:53.420Z,12.06
2023-02-04T09:49:23.740Z,12.08
2023-02-04T09:51:53.670Z,12.12
2023-02-04T09:54:24.309Z,12.32
2023-02-04T09:56:54.267Z,12.28
2023-02-04T09:59:25.557Z,12.56
2023-02-04T10:02:01.210Z,12.72
2023-02-04T10:04:31.834Z,13.08
2023-02-04T10:07:00.703Z,13.26
2023-02-04T10:09:29.579Z,13.13
2023-02-04T10:11:58.561Z,13.22
2023-02-04T10:14:27.243Z,13.35
2023-02-04T10:17:01.514Z,14.06
2023-02-04T10:19:32.834Z,14.09
2023-02-04T10:22:02.316Z,14.24
2023-02-04T10:24:34.655Z,13.95
2023-02-04T10:27:12.290Z,14.03
2023-02-04T10:29:42.573Z,14.23
2023-02-04T10:32:35.398Z,14.25
2023-02-04T10:35:05.677Z,14.37
2023-02-04T10:37:34.700Z,14.64
2023-02-04T10:40:03.165Z,14.96
2023-02-04T10:42:35.459Z,15.36
2023-02-04T10:45:04.410Z,15.08
2023-02-04T10:47:33.253Z,15.45
2023-02-04T10:50:06.877Z,15.38
2023-02-04T10:52:39.458Z,14.96
2023-02-04T10:55:18.533Z,14.74
2023-02-04T10:57:50.278Z,15.28
2023-02-04T11:00:25.030Z,14.95
2023-02-04T11:02:59.911Z,15.26
2023-02-04T11:05:39.161Z,15.47
2023-02-04T11:08:24.166Z,15.54
2023-02-04T11:10:56.373Z,15.41
2023-02-04T11:13:27.849Z,15.38
2023-02-04T11:16:26.409Z,15.14
2023-02-04T11:18:57.371Z,15.53
2023-02-04T11:21:43.755Z,14.81
2023-02-04T11:24:27.021Z,15.45
2023-02-04T11:27:09.428Z,15.80
2023-02-04T11:29:43.105Z,15.37
2023-02-04T11:32:33.175Z,14.97
2023-02-04T11:35:44.757Z,15.25
2023-02-04T11:38:35.710Z,15.11
2023-02-04T11:41:09.226Z,14.90
2023-02-04T11:43:41.221Z,14.62
2023-02-04T11:46:18.750Z,14.57
2023-02-04T11:48:48.171Z,14.83
2023-02-04T11:51:18.988Z,15.04
2023-02-04T11:53:54.082Z,15.12
2023-02-04T11:56:24.669Z,15.22
2023-02-04T11:58:59.753Z,15.25
2023-02-04T12:01:35.415Z,15.31
2023-02-04T12:04:07.370Z,14.67
2023-02-04T12:06:39.297Z,14.50
2023-02-04T12:09:27.136Z,14.65
2023-02-04T12:11:58.788Z,14.66
2023-02-04T12:14:33.230Z,14.52
2023-02-04T12:17:02.551Z,14.40
2023-02-04T12:19:31.415Z,14.64
2023-02-04T12:22:00.312Z,14.44
2023-02-04T12:24:30.677Z,14.41
2023-02-04T12:26:59.340Z,14.11
2023-02-04T12:29:28.509Z,14.37
2023-02-04T12:31:57.024Z,14.13
2023-02-04T12:34:26.011Z,14.59
2023-02-04T12:36:55.596Z,14.21
2023-02-04T12:39:25.167Z,14.28
2023-02-04T12:41:55.548Z,14.71
2023-02-04T12:44:24.411Z,14.91
2023-02-04T12:46:54.479Z,14.54
2023-02-04T12:49:26.225Z,14.56
2023-02-04T12:51:59.189Z,14.84
2023-02-04T12:54:28.726Z,15.04
2023-02-04T12:57:00.366Z,14.63
2023-02-04T12:59:31.399Z,14.92
2023-02-04T13:02:02.761Z,14.73
2023-02-04T13:04:39.015Z,14.82
2023-02-04T13:07:08.526Z,15.15
2023-02-04T13:10:00.624Z,14.94
2023-02-04T13:12:54.958Z,15.01
2023-02-04T13:15:36.000Z,15.41
2023-02-04T13:18:06.514Z,15.15
2023-02-04T13:20:38.585Z,15.22
2023-02-04T13:23:11.359Z,15.44
2023-02-04T13:25:46.873Z,15.59
2023-02-04T13:28:17.992Z,15.31
2023-02-04T13:30:54.299Z,15.50
2023-02-04T13:36:32.371Z,15.43
2023-02-04T13:39:02.585Z,15.80
2023-02-04T13:41:32.292Z,15.80
2023-02-04T13:44:10.379Z,15.41
2023-02-04T13:46:39.061Z,15.19
2023-02-04T13:49:10.099Z,15.50
2023-02-04T13:51:42.281Z,15.38
2023-02-04T13:54:11.355Z,15.21
2023-02-04T13:56:43.539Z,15.25
2023-02-04T13:59:13.848Z,14.83
2023-02-04T14:01:43.655Z,15.21
2023-02-04T14:04:15.434Z,15.05
2023-02-04T14:06:45.274Z,15.08
2023-02-04T14:09:14.768Z,14.70
2023-02-04T14:11:43.730Z,15.04
2023-02-04T14:14:17.998Z,15.34
2023-02-04T14:16:47.668Z,15.35
2023-02-04T14:19:17.059Z,15.29
2023-02-04T14:21:47.820Z,15.24
2023-02-04T14:24:20.871Z,14.84
2023-02-04T14:26:50.004Z,15.05
2023-02-04T14:29:24.269Z,15.24
2023-02-04T14:31:55.073Z,15.65
2023-02-04T14:34:25.076Z,15.43
2023-02-04T14:37:00.681Z,15.36
2023-02-04T14:39:37.874Z,15.08
2023-02-04T14:42:07.463Z,15.06
2023-02-04T14:44:38.868Z,15.30
2023-02-04T14:47:08.947Z,15.48
2023-02-04T14:49:40.013Z,15.11
2023-02-04T14:52:11.467Z,15.08
2023-02-04T14:54:42.512Z,14.87
2023-02-04T14:57:13.306Z,14.95
2023-02-04T14:59:44.142Z,14.77
2023-02-04T15:02:16.714Z,14.91
2023-02-04T15:04:46.018Z,14.87
2023-02-04T15:07:15.300Z,15.22
2023-02-04T15:09:44.712Z,15.11
2023-02-04T15:12:13.393Z,14.66
2023-02-04T15:14:45.220Z,14.72
2023-02-04T15:17:14.549Z,15.04
2023-02-04T15:19:43.073Z,15.05
2023-02-04T15:22:13.034Z,14.87
2023-02-04T15:24:42.667Z,15.11
2023-02-04T15:27:15.345Z,14.72
2023-02-04T15:29:49.640Z,14.96
2023-02-04T15:32:49.387Z,15.02
2023-02-04T15:35:23.695Z,14.75
2023-02-04T15:37:58.132Z,14.61
2023-02-04T15:40:30.139Z,14.51
2023-02-04T15:43:00.367Z,14.48
2023-02-04T15:45:41.772Z,14.52
2023-02-04T15:48:17.006Z,14.49
2023-02-04T15:50:45.749Z,14.53
2023-02-04T15:53:15.173Z,14.28
2023-02-04T15:55:45.100Z,13.74
2023-02-04T15:58:13.873Z,13.63
2023-02-04T16:01:02.157Z,13.43
2023-02-04T16:03:31.535Z,13.58
2023-02-04T16:06:00.931Z,13.83
2023-02-04T16:08:29.516Z,13.78
2023-02-04T16:10:58.618Z,13.81
2023-02-04T16:13:27.739Z,13.82
2023-02-04T16:16:01.201Z,13.62
2023-02-04T16:18:30.921Z,13.69
2023-02-04T16:20:59.915Z,13.72
2023-02-04T16:23:48.313Z,13.60
2023-02-04T16:26:19.596Z,13.57
2023-02-04T16:28:48.482Z,13.57
2023-02-04T16:31:19.203Z,13.48
2023-02-04T16:33:47.997Z,13.48
2023-02-04T16:36:18.543Z,13.40
2023-02-04T16:38:48.070Z,13.27
2023-02-04T16:41:16.786Z,13.33
2023-02-04T16:43:45.772Z,13.22
2023-02-04T16:46:18.252Z,13.19
2023-02-04T16:48:48.926Z,13.19
2023-02-04T16:51:18.125Z,13.18
2023-02-04T16:53:47.024Z,13.14
2023-02-04T16:56:20.724Z,13.13
2023-02-04T16:58:51.539Z,13.07
2023-02-04T17:01:20.467Z,13.06
2023-02-04T17:03:52.300Z,13.05
2023-02-04T17:06:20.983Z,12.94
2023-02-04T17:08:49.699Z,13.02
2023-02-04T17:11:30.370Z,12.95
2023-02-04T17:14:01.364Z,12.91
2023-02-04T17:16:31.360Z,12.94
2023-02-04T17:19:01.705Z,12.82
2023-02-04T17:21:31.363Z,12.82
2023-02-04T17:24:04.273Z,12.76
2023-02-04T17:26:37.550Z,12.76
2023-02-04T17:29:07.870Z,12.78
2023-02-04T17:31:36.762Z,12.75
2023-02-04T17:34:10.566Z,12.81
2023-02-04T17:36:43.437Z,12.77
2023-02-04T17:39:24.957Z,12.80
2023-02-04T17:41:53.375Z,12.77
2023-02-04T17:44:26.500Z,12.81
2023-02-04T17:46:58.678Z,12.79
2023-02-04T17:49:28.874Z,12.67
2023-02-04T17:51:57.478Z,12.62
2023-02-04T17:54:27.530Z,12.52
2023-02-04T17:56:58.683Z,12.59
2023-02-04T17:59:27.566Z,12.60
2023-02-04T18:02:10.958Z,12.69
2023-02-04T18:04:41.728Z,12.70
2023-02-04T18:07:10.989Z,12.61
2023-02-04T18:09:40.023Z,12.65
2023-02-04T18:12:16.484Z,12.58
2023-02-04T18:14:46.861Z,12.63
2023-02-04T18:17:17.133Z,12.59
2023-02-04T18:19:47.248Z,12.55
2023-02-04T18:22:18.594Z,12.58
2023-02-04T18:24:48.865Z,12.56
2023-02-04T18:27:21.962Z,12.55
2023-02-04T18:29:55.525Z,12.55
2023-02-04T18:32:30.042Z,12.58
2023-02-04T18:35:02.423Z,12.58
2023-02-04T18:37:34.408Z,12.54
2023-02-04T18:40:24.527Z,12.53
2023-02-04T18:43:04.849Z,12.49
2023-02-04T18:45:44.167Z,12.32
2023-02-04T18:49:02.795Z,12.40
2023-02-04T18:51:39.491Z,12.52
2023-02-04T18:54:35.811Z,12.44
2023-02-04T18:57:34.390Z,12.45
2023-02-04T19:03:26.375Z,12.23
2023-02-04T19:05:58.595Z,12.37
2023-02-04T19:08:42.684Z,12.43
2023-02-04T19:11:30.494Z,12.38
2023-02-04T19:14:00.388Z,12.46
2023-02-04T19:16:38.055Z,12.42
2023-02-04T19:19:35.797Z,12.39
2023-02-04T19:22:19.745Z,12.37
2023-02-04T19:24:52.303Z,12.30
2023-02-04T19:27:34.181Z,12.33
2023-02-04T19:30:21.517Z,12.07
2023-02-04T19:32:55.636Z,11.56
2023-02-04T19:35:27.467Z,11.53
2023-02-04T19:38:00.634Z,11.88
2023-02-04T19:40:34.669Z,11.62
2023-02-04T19:43:20.534Z,12.00
2023-02-04T19:45:51.207Z,12.07
2023-02-04T19:48:26.571Z,12.06
2023-02-04T19:50:55.206Z,12.07
2023-02-04T19:53:30.640Z,11.50
2023-02-04T19:56:00.904Z,11.48
2023-02-04T19:58:37.296Z,11.25
2023-02-04T20:01:10.640Z,10.77
2023-02-04T20:03:43.511Z,11.28
2023-02-04T20:06:33.941Z,11.11
2023-02-04T20:09:16.161Z,10.94
2023-02-04T20:11:58.255Z,11.50
2023-02-04T20:14:49.757Z,11.69
2023-02-04T20:17:30.279Z,11.65
2023-02-04T20:20:11.726Z,11.84
2023-02-04T20:22:52.694Z,11.68
2023-02-04T20:25:47.194Z,11.80
2023-02-04T20:28:42.392Z,11.77
2023-02-04T20:31:39.608Z,11.53
2023-02-04T20:34:19.684Z,11.48
2023-02-04T20:36:50.139Z,11.55
2023-02-04T20:39:38.281Z,11.29
2023-02-04T20:42:36.220Z,11.79
2023-02-04T20:45:34.080Z,11.65
2023-02-04T20:48:28.954Z,11.41
2023-02-04T20:51:01.551Z,11.96
2023-02-04T20:53:38.314Z,11.94
2023-02-04T20:56:28.015Z,11.78
2023-02-04T20:59:17.302Z,11.44
2023-02-04T21:01:50.300Z,11.57
2023-02-04T21:04:23.955Z,11.71
2023-02-04T21:06:55.115Z,11.34
2023-02-04T21:09:31.154Z,11.41
2023-02-04T21:12:00.956Z,11.75
2023-02-04T21:14:31.505Z,10.95
2023-02-04T21:17:02.298Z,11.49
2023-02-04T21:19:33.962Z,11.09
2023-02-04T21:22:03.659Z,10.85
2023-02-04T21:24:34.783Z,11.03
2023-02-04T21:27:04.336Z,11.58
2023-02-04T21:29:33.016Z,11.20
2023-02-04T21:32:05.209Z,11.30
2023-02-04T21:34:35.096Z,11.57
2023-02-04T21:37:05.040Z,11.65
2023-02-04T21:39:40.385Z,11.35
2023-02-04T21:42:34.045Z,11.64
2023-02-04T21:45:13.070Z,10.96
2023-02-04T21:47:50.645Z,11.43
2023-02-04T21:50:22.297Z,11.57
2023-02-04T21:52:59.491Z,11.21
2023-02-04T21:55:29.532Z,11.36
2023-02-04T21:57:59.097Z,11.35
2023-02-04T22:00:30.506Z,11.44
2023-02-04T22:03:02.772Z,11.64
2023-02-04T22:05:32.893Z,11.67
2023-02-04T22:08:02.080Z,11.26
2023-02-04T22:10:31.590Z,11.70
2023-02-04T22:13:18.463Z,11.77
2023-02-04T22:15:48.112Z,11.68
2023-02-04T22:18:25.543Z,11.49
2023-02-04T22:20:57.049Z,11.69
2023-02-04T22:23:26.843Z,11.75
2023-02-04T22:25:56.196Z,11.79
2023-02-04T22:28:25.720Z,11.71
2023-02-04T22:30:55.446Z,11.72
2023-02-04T22:33:25.765Z,11.58
2023-02-04T22:35:55.282Z,11.57
2023-02-04T22:38:25.343Z,11.69
2023-02-04T22:40:54.846Z,11.84
2023-02-04T22:43:23.651Z,11.64
2023-02-04T22:45:52.972Z,11.81
2023-02-04T22:48:22.895Z,11.53
2023-02-04T22:50:56.678Z,11.77
2023-02-04T22:53:26.589Z,11.81
2023-02-04T22:55:55.886Z,11.71
2023-02-04T22:58:25.718Z,11.81
2023-02-04T23:00:54.987Z,11.81
2023-02-04T23:03:24.161Z,11.86
2023-02-04T23:05:56.461Z,11.73
2023-02-04T23:08:25.644Z,11.78
2023-02-04T23:10:54.700Z,11.74
2023-02-04T23:13:27.222Z,11.83
2023-02-04T23:15:57.005Z,11.73
2023-02-04T23:18:27.985Z,11.83
2023-02-04T23:20:59.453Z,11.88
2023-02-04T23:23:31.591Z,11.80
2023-02-04T23:26:03.265Z,11.98
2023-02-04T23:28:32.412Z,11.78
2023-02-04T23:31:02.301Z,11.85
2023-02-04T23:33:30.780Z,11.80
2023-02-04T23:36:01.050Z,11.75
2023-02-04T23:38:31.704Z,11.78
2023-02-04T23:41:01.629Z,11.75
2023-02-04T23:43:30.378Z,11.95
2023-02-04T23:46:00.260Z,11.89
2023-02-04T23:48:28.735Z,12.00
2023-02-04T23:50:58.262Z,11.93
2023-02-04T23:53:29.691Z,11.60
2023-02-04T23:55:58.940Z,11.70
2023-02-04T23:58:27.596Z,11.55
